createdAt,value
2023-01-11T00:01:12.434Z,99624.69
2023-01-11T00:03:40.724Z,99619.13
2023-01-11T00:06:09.229Z,99635.38
2023-01-11T00:08:37.764Z,99634.59
2023-01-11T00:11:06.568Z,99641.72
2023-01-11T00:13:34.873Z,99638.44
2023-01-11T00:16:10.408Z,99653.16
2023-01-11T00:18:39.398Z,99658.25
2023-01-11T00:21:08.906Z,99660.28
2023-01-11T00:23:38.891Z,99663.56
2023-01-11T00:26:10.868Z,99666.81
2023-01-11T00:28:39.207Z,99673.84
2023-01-11T00:31:07.638Z,99685.97
2023-01-11T00:33:36.257Z,99687.38
2023-01-11T00:36:04.573Z,99692.88
2023-01-11T00:38:44.868Z,99699.13
2023-01-11T00:41:33.135Z,99699.78
2023-01-11T00:44:19.654Z,99704.78
2023-01-11T00:47:06.353Z,99710.53
2023-01-11T00:49:34.808Z,99717.06
2023-01-11T00:52:06.491Z,99719.56
2023-01-11T00:54:34.809Z,99718.03
2023-01-11T00:57:03.742Z,99722.81
2023-01-11T00:59:32.021Z,99722.53
2023-01-11T01:02:00.354Z,99728.59
2023-01-11T01:04:28.650Z,99725.78
2023-01-11T01:06:57.038Z,99730.13
2023-01-11T01:09:25.431Z,99731.38
2023-01-11T01:11:54.029Z,99732.63
2023-01-11T01:14:29.764Z,99740.97
2023-01-11T01:17:08.159Z,99740.66
2023-01-11T01:19:39.304Z,99741.91
2023-01-11T01:22:08.249Z,99752.28
2023-01-11T01:24:36.766Z,99755.06
2023-01-11T01:27:05.183Z,99759.88
2023-01-11T01:29:33.472Z,99755.06
2023-01-11T01:32:01.808Z,99763.75
2023-01-11T01:34:30.246Z,99772.41
2023-01-11T01:36:58.581Z,99771.16
2023-01-11T01:39:26.874Z,99765.09
2023-01-11T01:41:55.409Z,99769.72
2023-01-11T01:44:59.114Z,99769.25
2023-01-11T01:47:39.161Z,99774.34
2023-01-11T01:50:15.701Z,99771.09
2023-01-11T01:52:47.572Z,99767.84
2023-01-11T01:55:26.466Z,99773.72
2023-01-11T01:57:56.437Z,99777.56
2023-01-11T02:00:24.829Z,99775.84
2023-01-11T02:02:53.978Z,99776.13
2023-01-11T02:05:22.865Z,99777.66
2023-01-11T02:07:52.478Z,99775.16
2023-01-11T02:10:23.244Z,99779.78
2023-01-11T02:13:01.327Z,99782.88
2023-01-11T02:15:31.166Z,99775.56
2023-01-11T02:17:59.489Z,99781.44
2023-01-11T02:20:46.156Z,99777.38
2023-01-11T02:23:35.729Z,99782.47
2023-01-11T02:26:48.489Z,99784.63
2023-01-11T02:29:37.926Z,99782.44
2023-01-11T02:32:11.798Z,99784.25
2023-01-11T02:34:47.224Z,99787.34
2023-01-11T02:37:15.476Z,99785.13
2023-01-11T02:40:08.107Z,99790.22
2023-01-11T02:43:10.080Z,99792.03
2023-01-11T02:45:44.038Z,99793.59
2023-01-11T02:48:29.478Z,99790.59
2023-01-11T02:51:07.465Z,99789.34
2023-01-11T02:54:03.943Z,99786.41
2023-01-11T02:56:38.829Z,99791.50
2023-01-11T02:59:12.113Z,99789.28
2023-01-11T03:01:52.539Z,99789.09
2023-01-11T03:04:35.238Z,99786.59
2023-01-11T03:07:33.772Z,99778.53
2023-01-11T03:10:29.002Z,99774.00
2023-01-11T03:13:04.492Z,99782.16
2023-01-11T03:15:44.646Z,99775.13
2023-01-11T03:18:31.257Z,99772.94
2023-01-11T03:21:17.723Z,99769.19
2023-01-11T03:23:55.932Z,99763.13
2023-01-11T03:26:59.640Z,99764.16
2023-01-11T03:29:27.922Z,99762.16
2023-01-11T03:32:33.394Z,99757.34
2023-01-11T03:35:32.435Z,99756.28
2023-01-11T03:38:10.808Z,99753.50
2023-01-11T03:40:44.184Z,99753.00
2023-01-11T03:43:16.085Z,99758.88
2023-01-11T03:45:44.381Z,99754.81
2023-01-11T03:48:21.284Z,99755.88
2023-01-11T03:50:51.469Z,99747.78
2023-01-11T03:53:23.296Z,99753.66
2023-01-11T03:55:57.787Z,99751.16
2023-01-11T03:58:29.004Z,99742.78
2023-01-11T04:00:59.096Z,99737.94
2023-01-11T04:03:29.169Z,99738.44
2023-01-11T04:06:02.420Z,99741.50
2023-01-11T04:08:32.194Z,99740.25
2023-01-11T04:11:00.965Z,99737.47
2023-01-11T04:13:29.328Z,99734.38
2023-01-11T04:15:57.748Z,99730.84
2023-01-11T04:18:26.096Z,99724.00
2023-01-11T04:20:54.407Z,99724.75
2023-01-11T04:23:22.867Z,99720.72
2023-01-11T04:25:51.178Z,99719.75
2023-01-11T04:28:19.466Z,99718.50
2023-01-11T04:30:47.775Z,99712.72
2023-01-11T04:33:16.132Z,99709.44
2023-01-11T04:35:45.614Z,99695.00
2023-01-11T04:38:13.949Z,99696.03
2023-01-11T04:40:42.384Z,99691.50
2023-01-11T04:43:10.711Z,99684.66
2023-01-11T04:45:39.136Z,99681.09
2023-01-11T04:48:07.682Z,99680.31
2023-01-11T04:50:35.985Z,99671.19
2023-01-11T04:53:04.293Z,99670.69
2023-01-11T04:55:32.608Z,99669.94
2023-01-11T04:58:00.887Z,99660.78
2023-01-11T05:00:29.232Z,99653.16
2023-01-11T05:03:00.810Z,99655.97
2023-01-11T05:05:29.132Z,99649.59
2023-01-11T05:07:57.544Z,99653.16
2023-01-11T05:10:25.816Z,99648.84
2023-01-11T05:12:54.182Z,99639.69
2023-01-11T05:15:22.477Z,99638.94
2023-01-11T05:17:50.755Z,99638.16
2023-01-11T05:20:19.127Z,99629.00
2023-01-11T05:22:47.479Z,99624.97
2023-01-11T05:25:15.813Z,99620.63
2023-01-11T05:27:44.096Z,99601.56
2023-01-11T05:30:12.986Z,99605.91
2023-01-11T05:32:41.385Z,99607.22
2023-01-11T05:35:12.117Z,99606.53
2023-01-11T05:37:40.466Z,99597.44
2023-01-11T05:40:09.490Z,99589.63
2023-01-11T05:42:37.867Z,99588.16
2023-01-11T05:45:25.096Z,99581.53
2023-01-11T05:47:54.884Z,99583.97
2023-01-11T05:50:23.207Z,99580.84
2023-01-11T05:52:51.597Z,99571.91
2023-01-11T05:55:20.609Z,99571.34
2023-01-11T05:57:48.958Z,99564.50
2023-01-11T06:00:17.724Z,99559.19
2023-01-11T06:02:46.175Z,99551.09
2023-01-11T06:05:14.773Z,99556.19
2023-01-11T06:07:43.417Z,99548.84
2023-01-11T06:10:12.271Z,99544.59
2023-01-11T06:12:40.556Z,99536.75
2023-01-11T06:15:09.409Z,99529.13
2023-01-11T06:17:37.712Z,99536.56
2023-01-11T06:20:06.547Z,99523.34
2023-01-11T06:22:34.846Z,99524.88
2023-01-11T06:25:03.219Z,99525.66
2023-01-11T06:27:31.535Z,99514.47
2023-01-11T06:29:59.837Z,99513.50
2023-01-11T06:32:30.217Z,99501.34
2023-01-11T06:34:58.501Z,99505.97
2023-01-11T06:37:26.803Z,99500.38
2023-01-11T06:39:55.108Z,99491.50
2023-01-11T06:42:23.433Z,99489.47
2023-01-11T06:44:51.716Z,99490.22
2023-01-11T06:47:19.999Z,99479.31
2023-01-11T06:49:48.293Z,99476.53
2023-01-11T06:52:16.594Z,99476.53
2023-01-11T06:54:44.883Z,99470.44
2023-01-11T06:57:13.588Z,99467.16
2023-01-11T06:59:42.823Z,99467.44
2023-01-11T07:02:11.862Z,99456.25
2023-01-11T07:04:40.145Z,99458.53
2023-01-11T07:07:08.423Z,99455.75
2023-01-11T07:09:36.707Z,99456.50
2023-01-11T07:12:05.276Z,99448.13
2023-01-11T07:14:33.582Z,99454.97
2023-01-11T07:17:01.896Z,99450.66
2023-01-11T07:19:30.190Z,99448.84
2023-01-11T07:21:58.474Z,99449.34
2023-01-11T07:24:26.941Z,99443.00
2023-01-11T07:26:57.104Z,99447.06
2023-01-11T07:29:25.367Z,99440.69
2023-01-11T07:31:53.660Z,99432.06
2023-01-11T07:34:21.967Z,99436.59
2023-01-11T07:36:50.342Z,99426.97
2023-01-11T07:39:18.674Z,99429.75
2023-01-11T07:42:06.168Z,99432.28
2023-01-11T07:44:34.467Z,99430.75
2023-01-11T07:47:02.799Z,99425.44
2023-01-11T07:49:31.201Z,99422.41
2023-01-11T07:51:59.542Z,99419.88
2023-01-11T07:54:27.968Z,99413.53
2023-01-11T07:56:57.603Z,99412.50
2023-01-11T07:59:25.953Z,99415.03
2023-01-11T08:01:54.348Z,99416.28
2023-01-11T08:04:22.653Z,99414.00
2023-01-11T08:06:50.947Z,99411.97
2023-01-11T08:09:19.259Z,99413.69
2023-01-11T08:12:06.050Z,99418.50
2023-01-11T08:14:40.422Z,99410.13
2023-01-11T08:17:10.711Z,99405.31
2023-01-11T08:19:39.525Z,99404.03
2023-01-11T08:22:08.320Z,99405.09
2023-01-11T08:24:36.808Z,99399.78
2023-01-11T08:27:06.005Z,99404.38
2023-01-11T08:29:34.384Z,99400.31
2023-01-11T08:32:03.379Z,99396.28
2023-01-11T08:34:33.623Z,99403.38
2023-01-11T08:37:03.085Z,99409.75
2023-01-11T08:39:32.105Z,99405.69
2023-01-11T08:42:01.549Z,99405.69
2023-01-11T08:44:34.148Z,99400.09
2023-01-11T08:47:03.913Z,99400.09
2023-01-11T08:49:32.523Z,99406.94
2023-01-11T08:52:00.832Z,99401.84
2023-01-11T08:54:29.363Z,99399.81
2023-01-11T08:56:57.682Z,99407.44
2023-01-11T08:59:26.151Z,99409.22
2023-01-11T09:01:54.432Z,99409.22
2023-01-11T09:04:25.419Z,99408.94
2023-01-11T09:06:54.702Z,99410.47
2023-01-11T09:09:23.139Z,99411.72
2023-01-11T09:12:05.582Z,99412.22
2023-01-11T09:14:34.365Z,99411.97
2023-01-11T09:17:02.779Z,99409.94
2023-01-11T09:19:31.147Z,99416.78
2023-01-11T09:22:01.290Z,99406.84
2023-01-11T09:24:31.113Z,99407.06
2023-01-11T09:27:00.714Z,99409.59
2023-01-11T09:29:29.069Z,99401.69
2023-01-11T09:31:57.550Z,99407.00
2023-01-11T09:34:28.155Z,99415.09
2023-01-11T09:36:58.620Z,99413.56
2023-01-11T09:39:28.640Z,99405.69
2023-01-11T09:42:28.031Z,99406.69
2023-01-11T09:45:19.676Z,99404.38
2023-01-11T09:48:07.745Z,99407.69
2023-01-11T09:50:42.153Z,99415.78
2023-01-11T09:53:25.300Z,99418.31
2023-01-11T09:55:57.703Z,99414.47
2023-01-11T09:58:57.401Z,99408.13
2023-01-11T10:01:47.799Z,99411.41
2023-01-11T10:04:39.800Z,99415.97
2023-01-11T10:07:30.119Z,99418.00
2023-01-11T10:18:36.990Z,99434.47
2023-01-11T10:19:48.979Z,99430.13
2023-01-11T10:22:37.806Z,99433.41
2023-01-11T10:25:24.572Z,99437.94
2023-01-11T10:28:09.915Z,99428.81
2023-01-11T10:30:49.615Z,99432.59
2023-01-11T10:33:38.817Z,99434.59
2023-01-11T10:36:32.234Z,99433.06
2023-01-11T10:39:25.781Z,99438.66
2023-01-11T10:42:11.763Z,99432.81
2023-01-11T10:44:43.439Z,99430.00
2023-01-11T10:47:19.322Z,99438.38
2023-01-11T10:50:00.689Z,99434.06
2023-01-11T10:52:36.255Z,99431.75
2023-01-11T10:55:35.252Z,99425.91
2023-01-11T10:58:24.146Z,99432.75
2023-01-11T11:01:32.074Z,99431.22
2023-01-11T11:04:12.233Z,99424.88
2023-01-11T11:07:01.160Z,99433.75
2023-01-11T11:10:01.271Z,99434.22
2023-01-11T11:12:37.697Z,99439.81
2023-01-11T11:15:13.046Z,99439.03
2023-01-11T11:17:47.241Z,99443.09
2023-01-11T11:20:30.634Z,99435.50
2023-01-11T11:22:59.166Z,99435.50
2023-01-11T11:25:42.659Z,99427.59
2023-01-11T11:28:23.928Z,99430.41
2023-01-11T11:30:56.484Z,99433.97
2023-01-11T11:33:42.129Z,99431.66
2023-01-11T11:36:13.194Z,99443.59
2023-01-11T11:39:10.446Z,99441.28
2023-01-11T11:42:05.064Z,99438.19
2023-01-11T11:44:33.618Z,99443.00
2023-01-11T11:47:16.606Z,99443.50
2023-01-11T11:49:45.153Z,99445.53
2023-01-11T11:52:19.098Z,99444.00
2023-01-11T11:55:00.797Z,99446.03
2023-01-11T11:57:35.678Z,99448.81
2023-01-11T12:00:08.364Z,99440.44
2023-01-11T12:02:50.923Z,99446.03
2023-01-11T12:05:19.377Z,99445.75
2023-01-11T12:07:55.110Z,99445.75
2023-01-11T12:10:27.097Z,99448.25
2023-01-11T12:13:28.387Z,99444.69
2023-01-11T12:16:03.184Z,99456.91
2023-01-11T12:18:42.120Z,99458.94
2023-01-11T12:21:28.319Z,99445.47
2023-01-11T12:24:10.693Z,99460.19
2023-01-11T12:26:59.108Z,99460.19
2023-01-11T12:29:49.286Z,99465.78
2023-01-11T12:32:48.644Z,99470.59
2023-01-11T12:35:19.984Z,99474.13
2023-01-11T12:38:10.611Z,99473.38
2023-01-11T12:41:02.680Z,99481.75
2023-01-11T12:43:44.285Z,99490.13
2023-01-11T12:46:47.746Z,99489.34
2023-01-11T12:49:29.460Z,99492.13
2023-01-11T12:52:19.023Z,99497.22
2023-01-11T12:55:16.827Z,99498.75
2023-01-11T12:58:09.175Z,99500.03
2023-01-11T13:00:59.058Z,99500.03
2023-01-11T13:03:35.150Z,99500.50
2023-01-11T13:06:38.590Z,99507.63
2023-01-11T13:09:18.715Z,99504.06
2023-01-11T13:12:00.099Z,99518.03
2023-01-11T13:14:28.333Z,99514.47
2023-01-11T13:17:45.909Z,99514.19
2023-01-11T13:20:59.857Z,99512.94
2023-01-11T13:23:42.942Z,99519.78
2023-01-11T13:26:17.256Z,99521.78
2023-01-11T13:28:52.151Z,99521.50
2023-01-11T13:31:21.423Z,99526.31
2023-01-11T13:33:57.926Z,99529.13
2023-01-11T13:36:34.443Z,99527.56
2023-01-11T13:39:31.941Z,99534.69
2023-01-11T13:42:06.160Z,99533.13
2023-01-11T13:44:53.890Z,99541.50
2023-01-11T13:47:38.735Z,99543.25
2023-01-11T13:50:22.185Z,99547.56
2023-01-11T13:52:56.397Z,99544.78
2023-01-11T13:55:31.400Z,99544.78
2023-01-11T13:58:29.842Z,99557.47
2023-01-11T14:01:11.819Z,99554.41
2023-01-11T14:03:49.584Z,99559.22
2023-01-11T14:06:32.802Z,99554.91
2023-01-11T14:09:39.223Z,99565.28
2023-01-11T14:12:20.931Z,99566.53
2023-01-11T14:15:10.335Z,99567.31
2023-01-11T14:18:12.184Z,99572.88
2023-01-11T14:20:52.451Z,99568.84
2023-01-11T14:23:39.118Z,99570.09
2023-01-11T14:26:16.628Z,99572.13
2023-01-11T14:29:08.387Z,99572.13
2023-01-11T14:32:03.922Z,99571.34
2023-01-11T14:34:41.107Z,99570.09
2023-01-11T14:37:36.979Z,99567.31
2023-01-11T14:40:35.907Z,99572.13
2023-01-11T14:43:40.678Z,99569.34
2023-01-11T14:46:33.446Z,99563.75
2023-01-11T14:49:22.306Z,99572.13
2023-01-11T14:51:57.914Z,99567.81
2023-01-11T14:54:40.031Z,99561.44
2023-01-11T14:57:40.541Z,99559.44
2023-01-11T15:00:21.021Z,99570.59
2023-01-11T15:03:09.707Z,99572.63
2023-01-11T15:06:01.643Z,99566.25
2023-01-11T15:08:44.133Z,99567.03
2023-01-11T15:11:24.654Z,99565.78
2023-01-11T15:14:23.375Z,99558.19
2023-01-11T15:17:13.951Z,99564.53
2023-01-11T15:19:45.403Z,99563.75
2023-01-11T15:22:32.167Z,99563.00
2023-01-11T15:25:09.314Z,99563.00
2023-01-11T15:27:39.564Z,99563.47
2023-01-11T15:30:28.928Z,99567.03
2023-01-11T15:33:18.931Z,99569.81
2023-01-11T15:36:08.827Z,99569.53
2023-01-11T15:38:50.931Z,99575.13
2023-01-11T15:42:00.804Z,99563.97
2023-01-11T15:44:44.725Z,99569.53
2023-01-11T15:47:42.076Z,99564.72
2023-01-11T15:50:46.919Z,99570.59
2023-01-11T15:53:37.217Z,99560.69
2023-01-11T15:56:36.591Z,99558.66
2023-01-11T15:59:21.204Z,99558.66
2023-01-11T16:02:08.024Z,99557.91
2023-01-11T16:04:46.890Z,99552.31
2023-01-11T16:07:30.083Z,99564.53
2023-01-11T16:10:11.323Z,99563.75
2023-01-11T16:13:04.575Z,99551.34
2023-01-11T16:15:45.268Z,99552.88
2023-01-11T16:18:23.862Z,99560.47
2023-01-11T16:21:08.304Z,99562.78
2023-01-11T16:23:37.258Z,99566.81
2023-01-11T16:26:07.890Z,99562.50
2023-01-11T16:28:36.575Z,99561.25
2023-01-11T16:31:06.830Z,99562.00
2023-01-11T16:33:35.986Z,99561.53
2023-01-11T16:36:25.898Z,99565.84
2023-01-11T16:39:10.508Z,99563.81
2023-01-11T16:42:04.163Z,99567.41
2023-01-11T16:44:45.540Z,99566.16
2023-01-11T16:47:30.935Z,99567.69
2023-01-11T16:50:26.129Z,99568.47
2023-01-11T16:52:57.887Z,99567.69
2023-01-11T16:55:31.837Z,99570.47
2023-01-11T16:58:18.322Z,99565.41
2023-01-11T17:01:01.029Z,99565.41
2023-01-11T17:03:32.362Z,99550.69
2023-01-11T17:06:09.744Z,99559.03
2023-01-11T17:08:40.685Z,99550.69
2023-01-11T17:11:21.217Z,99545.84
2023-01-11T17:14:06.319Z,99545.38
2023-01-11T17:16:50.381Z,99545.38
2023-01-11T17:19:32.081Z,99547.69
2023-01-11T17:22:06.082Z,99542.84
2023-01-11T17:24:43.424Z,99543.63
2023-01-11T17:27:22.219Z,99545.66
2023-01-11T17:29:53.307Z,99544.41
2023-01-11T17:32:30.565Z,99549.22
2023-01-11T17:35:03.318Z,99548.44
2023-01-11T17:37:32.250Z,99541.59
2023-01-11T17:40:01.211Z,99544.41
2023-01-11T17:42:47.884Z,99538.03
2023-01-11T17:45:27.155Z,99545.66
2023-01-11T17:47:56.322Z,99543.63
2023-01-11T17:50:36.159Z,99541.31
2023-01-11T17:53:26.768Z,99542.56
2023-01-11T17:55:59.316Z,99539.03
2023-01-11T17:58:38.611Z,99540.56
2023-01-11T18:01:09.724Z,99542.56
2023-01-11T18:03:54.943Z,99544.13
2023-01-11T18:06:31.985Z,99534.22
2023-01-11T18:09:02.391Z,99532.66
2023-01-11T18:11:38.102Z,99536.72
2023-01-11T18:14:17.046Z,99530.34
2023-01-11T18:17:05.779Z,99533.63
2023-01-11T18:19:42.684Z,99536.91
2023-01-11T18:22:42.863Z,99528.25
2023-01-11T18:25:23.376Z,99530.28
2023-01-11T18:27:52.404Z,99521.91
2023-01-11T18:30:33.185Z,99518.63
2023-01-11T18:33:04.801Z,99524.22
2023-01-11T18:35:46.511Z,99515.06
2023-01-11T18:38:23.383Z,99510.25
2023-01-11T18:40:54.547Z,99511.50
2023-01-11T18:43:32.692Z,99501.13
2023-01-11T18:46:01.079Z,99507.97
2023-01-11T18:48:29.398Z,99503.13
2023-01-11T18:50:58.676Z,99492.75
2023-01-11T18:53:29.041Z,99497.06
2023-01-11T18:55:57.369Z,99490.72
2023-01-11T18:58:25.746Z,99483.13
2023-01-11T19:00:54.188Z,99481.09
2023-01-11T19:03:22.733Z,99476.78
2023-01-11T19:05:51.106Z,99480.34
2023-01-11T19:08:19.845Z,99488.91
2023-01-11T19:10:50.015Z,99494.69
2023-01-11T19:13:20.287Z,99486.03
2023-01-11T19:15:49.135Z,99489.78
2023-01-11T19:18:17.603Z,99489.03
2023-01-11T19:20:45.988Z,99491.81
2023-01-11T19:23:14.522Z,99487.50
2023-01-11T19:25:42.883Z,99483.94
2023-01-11T19:28:11.278Z,99481.16
2023-01-11T19:30:40.378Z,99481.41
2023-01-11T19:33:08.785Z,99477.09
2023-01-11T19:35:42.037Z,99469.50
2023-01-11T19:38:10.972Z,99463.63
2023-01-11T19:40:39.341Z,99454.00
2023-01-11T19:43:07.663Z,99463.91
2023-01-11T19:45:36.012Z,99461.91
2023-01-11T19:48:05.574Z,99455.56
2023-01-11T19:50:34.361Z,99457.56
2023-01-11T19:53:02.679Z,99459.59
2023-01-11T19:55:31.109Z,99439.59
2023-01-11T19:57:59.424Z,99446.41
2023-01-11T20:00:27.805Z,99444.88
2023-01-11T20:02:56.217Z,99440.56
2023-01-11T20:05:24.553Z,99443.34
2023-01-11T20:07:54.831Z,99432.97
2023-01-11T20:10:23.133Z,99440.06
2023-01-11T20:12:51.447Z,99425.84
2023-01-11T20:15:19.758Z,99436.25
2023-01-11T20:17:48.074Z,99427.09
2023-01-11T20:20:16.545Z,99429.13
2023-01-11T20:22:45.731Z,99429.88
2023-01-11T20:25:14.424Z,99433.44
2023-01-11T20:27:42.786Z,99427.09
2023-01-11T20:30:11.873Z,99434.22
2023-01-11T20:32:42.150Z,99431.91
2023-01-11T20:35:11.602Z,99431.91
2023-01-11T20:37:40.070Z,99435.97
2023-01-11T20:40:09.042Z,99425.28
2023-01-11T20:42:37.399Z,99432.91
2023-01-11T20:45:06.133Z,99431.34
2023-01-11T20:47:34.439Z,99435.41
2023-01-11T20:50:02.804Z,99430.31
2023-01-11T20:52:31.115Z,99435.63
2023-01-11T20:54:59.450Z,99438.41
2023-01-11T20:57:30.251Z,99439.66
2023-01-11T20:59:58.757Z,99440.91
2023-01-11T21:02:27.232Z,99440.91
2023-01-11T21:04:55.644Z,99439.38
2023-01-11T21:07:23.977Z,99442.16
2023-01-11T21:09:52.294Z,99445.25
2023-01-11T21:12:21.305Z,99443.69
2023-01-11T21:14:49.650Z,99433.81
2023-01-11T21:17:18.707Z,99431.22
2023-01-11T21:19:47.226Z,99436.03
2023-01-11T21:22:15.590Z,99434.19
2023-01-11T21:24:45.233Z,99441.78
2023-01-11T21:27:13.659Z,99444.59
2023-01-11T21:29:42.045Z,99440.25
2023-01-11T21:32:10.816Z,99434.41
2023-01-11T21:34:39.112Z,99428.81
2023-01-11T21:37:07.395Z,99423.75
2023-01-11T21:39:35.718Z,99427.78
2023-01-11T21:42:04.595Z,99425.00
2023-01-11T21:44:35.188Z,99425.47
2023-01-11T21:47:06.600Z,99425.47
2023-01-11T21:49:35.173Z,99428.75
2023-01-11T21:52:03.590Z,99434.06
2023-01-11T21:54:32.006Z,99436.84
2023-01-11T21:57:00.368Z,99433.78
2023-01-11T21:59:29.028Z,99435.03
2023-01-11T22:01:57.372Z,99442.63
2023-01-11T22:04:25.777Z,99444.66
2023-01-11T22:06:56.562Z,99439.06
2023-01-11T22:09:28.764Z,99446.94
2023-01-11T22:11:57.144Z,99447.72
2023-01-11T22:14:25.848Z,99445.69
2023-01-11T22:16:54.778Z,99446.47
2023-01-11T22:19:23.455Z,99436.06
2023-01-11T22:21:51.776Z,99441.66
2023-01-11T22:24:20.165Z,99441.66
2023-01-11T22:26:48.508Z,99440.88
2023-01-11T22:29:16.961Z,99459.16
2023-01-11T22:31:55.634Z,99458.38
2023-01-11T22:34:25.367Z,99456.34
2023-01-11T22:36:55.156Z,99450.78
2023-01-11T22:39:24.984Z,99454.34
2023-01-11T22:41:53.600Z,99455.88
2023-01-11T22:44:21.938Z,99459.44
2023-01-11T22:46:50.364Z,99464.25
2023-01-11T22:49:20.549Z,99464.25
2023-01-11T22:51:49.171Z,99468.56
2023-01-11T22:54:17.517Z,99469.31
2023-01-11T22:56:45.831Z,99463.75
2023-01-11T22:59:14.215Z,99462.50
2023-01-11T23:01:43.574Z,99460.47
2023-01-11T23:04:14.888Z,99464.78
2023-01-11T23:06:44.493Z,99462.78
2023-01-11T23:09:17.217Z,99463.53
2023-01-11T23:12:04.457Z,99461.53
2023-01-11T23:14:34.047Z,99465.84
2023-01-11T23:17:11.557Z,99463.06
2023-01-11T23:19:41.901Z,99474.97
2023-01-11T23:22:11.334Z,99477.75
2023-01-11T23:24:39.966Z,99481.81
2023-01-11T23:27:08.340Z,99479.78
2023-01-11T23:29:36.876Z,99482.56
2023-01-11T23:32:05.536Z,99478.25
2023-01-11T23:34:33.911Z,99489.13
2023-01-11T23:37:02.209Z,99490.38
2023-01-11T23:39:31.582Z,99487.31
2023-01-11T23:42:18.211Z,99487.31
2023-01-11T23:44:47.911Z,99499.72
2023-01-11T23:47:22.131Z,99500.97
2023-01-11T23:49:51.844Z,99496.38
2023-01-11T23:52:22.100Z,99498.59
2023-01-11T23:54:50.433Z,99507.44
2023-01-11T23:57:20.667Z,99507.44
2023-01-11T23:59:49.047Z,99506.94
